createdAt,value
2023-03-10T00:01:15.679Z,2.90
2023-03-10T00:03:43.372Z,3.03
2023-03-10T00:06:12.809Z,2.83
2023-03-10T00:08:40.195Z,3.07
2023-03-10T00:11:07.428Z,3.63
2023-03-10T00:13:34.702Z,4.30
2023-03-10T00:16:02.007Z,2.97
2023-03-10T00:18:29.239Z,3.17
2023-03-10T00:20:56.452Z,3.60
2023-03-10T00:23:23.718Z,3.47
2023-03-10T00:25:54.955Z,3.30
2023-03-10T00:28:22.159Z,3.10
2023-03-10T00:30:59.850Z,3.37
2023-03-10T00:33:27.091Z,2.60
2023-03-10T00:36:05.536Z,2.33
2023-03-10T00:38:33.079Z,2.43
2023-03-10T00:41:04.761Z,2.23
2023-03-10T00:43:32.071Z,1.93
2023-03-10T00:45:59.732Z,2.20
2023-03-10T00:48:27.312Z,1.80
2023-03-10T00:50:54.602Z,1.37
2023-03-10T00:53:21.774Z,0.90
2023-03-10T00:56:01.195Z,1.27
2023-03-10T00:58:29.029Z,1.00
2023-03-10T01:00:56.234Z,1.00
2023-03-10T01:03:24.010Z,1.07
2023-03-10T01:05:51.480Z,0.80
2023-03-10T01:08:18.959Z,1.67
2023-03-10T01:10:46.517Z,2.03
2023-03-10T01:13:14.427Z,4.00
2023-03-10T01:15:44.471Z,3.20
2023-03-10T01:18:11.686Z,6.07
2023-03-10T01:20:41.509Z,5.33
2023-03-10T01:23:13.457Z,5.90
2023-03-10T01:25:40.611Z,6.70
2023-03-10T01:28:07.781Z,8.23
2023-03-10T01:30:35.309Z,8.10
2023-03-10T01:33:02.570Z,8.20
2023-03-10T01:35:30.452Z,7.23
2023-03-10T01:37:57.910Z,4.37
2023-03-10T01:40:26.812Z,5.30
2023-03-10T01:42:54.388Z,3.00
2023-03-10T01:45:21.519Z,3.10
2023-03-10T01:47:48.684Z,3.00
2023-03-10T01:50:17.117Z,2.80
2023-03-10T01:52:45.767Z,2.20
2023-03-10T01:55:15.868Z,2.60
2023-03-10T01:57:46.036Z,1.80
2023-03-10T02:00:14.753Z,2.60
2023-03-10T02:02:47.207Z,2.20
2023-03-10T02:05:14.988Z,2.10
2023-03-10T02:07:43.871Z,3.00
2023-03-10T02:10:12.298Z,2.40
2023-03-10T02:12:39.448Z,2.40
2023-03-10T02:15:07.392Z,2.00
2023-03-10T02:17:35.194Z,2.03
2023-03-10T02:20:04.353Z,2.10
2023-03-10T02:22:32.717Z,2.37
2023-03-10T02:24:59.853Z,2.13
2023-03-10T02:27:27.812Z,2.37
2023-03-10T02:30:06.265Z,2.20
2023-03-10T02:32:38.991Z,1.97
2023-03-10T02:35:06.528Z,2.50
2023-03-10T02:37:35.651Z,2.70
2023-03-10T02:40:05.206Z,3.37
2023-03-10T02:42:34.770Z,3.13
2023-03-10T02:45:03.504Z,3.37
2023-03-10T02:47:30.684Z,3.83
2023-03-10T02:49:57.839Z,3.40
2023-03-10T02:52:32.339Z,2.93
2023-03-10T02:54:59.541Z,2.90
2023-03-10T02:57:26.684Z,2.30
2023-03-10T02:59:53.861Z,2.33
2023-03-10T03:02:21.230Z,2.50
2023-03-10T03:04:48.390Z,3.00
2023-03-10T03:07:15.689Z,2.40
2023-03-10T03:09:42.828Z,3.03
2023-03-10T03:12:10.249Z,3.10
2023-03-10T03:14:37.372Z,2.20
2023-03-10T03:17:04.608Z,2.50
2023-03-10T03:19:31.797Z,2.60
2023-03-10T03:21:58.969Z,2.30
2023-03-10T03:24:26.091Z,2.53
2023-03-10T03:26:53.207Z,2.33
2023-03-10T03:29:20.502Z,2.27
2023-03-10T03:31:47.708Z,2.83
2023-03-10T03:34:15.739Z,2.00
2023-03-10T03:36:42.925Z,2.30
2023-03-10T03:39:10.162Z,2.17
2023-03-10T03:41:37.380Z,2.30
2023-03-10T03:44:04.536Z,2.57
2023-03-10T03:46:31.808Z,3.27
2023-03-10T03:48:59.074Z,2.57
2023-03-10T03:51:26.297Z,2.37
2023-03-10T03:53:53.439Z,2.77
2023-03-10T03:56:20.598Z,2.50
2023-03-10T03:58:47.822Z,3.93
2023-03-10T04:01:15.608Z,2.23
2023-03-10T04:03:42.856Z,2.60
2023-03-10T04:06:10.144Z,2.90
2023-03-10T04:08:37.358Z,2.50
2023-03-10T04:11:04.585Z,3.57
2023-03-10T04:13:31.770Z,3.73
2023-03-10T04:15:59.862Z,3.10
2023-03-10T04:18:27.507Z,3.30
2023-03-10T04:20:54.705Z,3.17
2023-03-10T04:23:21.979Z,2.80
2023-03-10T04:25:49.415Z,3.17
2023-03-10T04:28:16.735Z,3.37
2023-03-10T04:30:44.911Z,2.80
2023-03-10T04:33:12.483Z,2.60
2023-03-10T04:35:41.154Z,3.30
2023-03-10T04:38:08.473Z,3.13
2023-03-10T04:40:35.757Z,3.87
2023-03-10T04:43:03.008Z,3.47
2023-03-10T04:45:30.203Z,3.20
2023-03-10T04:47:57.401Z,2.30
2023-03-10T04:50:24.557Z,2.20
2023-03-10T04:52:51.780Z,2.63
2023-03-10T04:55:18.960Z,3.20
2023-03-10T04:57:46.139Z,2.70
2023-03-10T05:00:13.412Z,3.03
2023-03-10T05:02:41.374Z,2.73
2023-03-10T05:05:08.752Z,2.40
2023-03-10T05:07:35.949Z,2.20
2023-03-10T05:10:03.275Z,2.37
2023-03-10T05:12:30.435Z,1.70
2023-03-10T05:14:57.561Z,1.80
2023-03-10T05:17:24.748Z,1.73
2023-03-10T05:19:51.900Z,2.00
2023-03-10T05:22:19.146Z,1.87
2023-03-10T05:24:47.861Z,1.57
2023-03-10T05:27:15.079Z,1.63
2023-03-10T05:29:42.202Z,1.77
2023-03-10T05:32:09.416Z,1.73
2023-03-10T05:34:36.687Z,1.70
2023-03-10T05:37:03.970Z,1.80
2023-03-10T05:39:31.172Z,1.40
2023-03-10T05:41:58.309Z,1.30
2023-03-10T05:44:25.477Z,1.47
2023-03-10T05:46:52.745Z,2.40
2023-03-10T05:49:20.187Z,1.50
2023-03-10T05:51:47.326Z,1.67
2023-03-10T05:54:14.789Z,1.60
2023-03-10T05:56:41.973Z,1.90
2023-03-10T05:59:09.122Z,1.87
2023-03-10T06:01:37.138Z,1.67
2023-03-10T06:04:04.342Z,1.83
2023-03-10T06:06:31.548Z,1.53
2023-03-10T06:08:59.687Z,1.73
2023-03-10T06:11:27.007Z,1.77
2023-03-10T06:13:54.294Z,1.80
2023-03-10T06:16:21.516Z,2.00
2023-03-10T06:18:48.671Z,2.13
2023-03-10T06:21:15.938Z,2.00
2023-03-10T06:23:43.194Z,2.40
2023-03-10T06:26:12.984Z,2.10
2023-03-10T06:28:41.327Z,2.30
2023-03-10T06:31:19.163Z,3.70
2023-03-10T06:33:46.520Z,4.17
2023-03-10T06:36:14.157Z,3.97
2023-03-10T06:38:41.584Z,3.67
2023-03-10T06:41:09.046Z,4.53
2023-03-10T06:43:36.376Z,3.87
2023-03-10T06:46:07.469Z,4.00
2023-03-10T06:48:35.086Z,3.07
2023-03-10T06:51:02.400Z,2.30
2023-03-10T06:53:29.580Z,2.17
2023-03-10T06:55:59.462Z,3.00
2023-03-10T06:58:26.739Z,2.13
2023-03-10T07:00:53.980Z,3.23
2023-03-10T07:03:21.230Z,4.13
2023-03-10T07:05:49.222Z,4.37
2023-03-10T07:08:16.503Z,4.90
2023-03-10T07:10:43.750Z,4.57
2023-03-10T07:13:13.804Z,3.30
2023-03-10T07:15:41.140Z,3.60
2023-03-10T07:18:08.756Z,3.27
2023-03-10T07:20:35.973Z,3.37
2023-03-10T07:23:03.238Z,3.20
2023-03-10T07:25:30.378Z,2.40
2023-03-10T07:27:57.546Z,3.10
2023-03-10T07:30:24.728Z,2.33
2023-03-10T07:32:55.364Z,2.27
2023-03-10T07:35:22.616Z,3.00
2023-03-10T07:37:49.867Z,3.13
2023-03-10T07:40:17.065Z,2.77
2023-03-10T07:42:44.447Z,3.10
2023-03-10T07:45:12.240Z,2.90
2023-03-10T07:47:39.396Z,4.87
2023-03-10T07:50:06.846Z,5.23
2023-03-10T07:52:33.981Z,4.87
2023-03-10T07:55:01.153Z,5.27
2023-03-10T07:57:28.922Z,4.67
2023-03-10T07:59:56.101Z,4.80
2023-03-10T08:02:23.280Z,3.93
2023-03-10T08:04:50.532Z,4.23
2023-03-10T08:07:17.853Z,4.07
2023-03-10T08:09:50.488Z,2.90
2023-03-10T08:12:18.402Z,3.90
2023-03-10T08:14:45.959Z,5.30
2023-03-10T08:17:13.276Z,8.83
2023-03-10T08:19:40.440Z,5.57
2023-03-10T08:22:07.732Z,5.70
2023-03-10T08:24:35.547Z,5.00
2023-03-10T08:27:02.751Z,4.03
2023-03-10T08:29:29.997Z,3.33
2023-03-10T08:31:57.202Z,3.57
2023-03-10T08:34:24.475Z,2.93
2023-03-10T08:36:51.618Z,3.57
2023-03-10T08:39:18.886Z,3.47
2023-03-10T08:41:49.160Z,3.63
2023-03-10T08:44:18.000Z,3.87
2023-03-10T08:46:46.904Z,3.20
2023-03-10T08:49:15.601Z,2.70
2023-03-10T08:51:42.948Z,2.30
2023-03-10T08:54:11.966Z,2.20
2023-03-10T08:56:39.224Z,2.30
2023-03-10T08:59:06.404Z,2.10
2023-03-10T09:01:35.421Z,3.10
2023-03-10T09:04:03.186Z,2.70
2023-03-10T09:06:31.012Z,2.50
2023-03-10T09:08:58.339Z,2.80
2023-03-10T09:11:27.265Z,2.60
2023-03-10T09:13:54.796Z,2.10
2023-03-10T09:16:22.296Z,2.60
2023-03-10T09:18:49.656Z,2.20
2023-03-10T09:21:17.858Z,2.23
2023-03-10T09:23:46.217Z,2.53
2023-03-10T09:26:14.137Z,3.67
2023-03-10T09:28:41.501Z,3.00
2023-03-10T09:31:09.342Z,3.27
2023-03-10T09:33:36.758Z,4.03
2023-03-10T09:36:06.735Z,3.73
2023-03-10T09:38:34.282Z,3.23
2023-03-10T09:41:20.131Z,3.27
2023-03-10T09:43:52.668Z,2.60
2023-03-10T09:46:20.358Z,2.57
2023-03-10T09:48:47.589Z,2.30
2023-03-10T09:51:22.158Z,2.90
2023-03-10T09:54:15.826Z,3.20
2023-03-10T09:56:43.470Z,2.43
2023-03-10T09:59:15.769Z,1.87
2023-03-10T10:01:45.195Z,2.23
2023-03-10T10:04:14.418Z,2.40
2023-03-10T10:06:46.182Z,1.90
2023-03-10T10:09:23.291Z,2.23
2023-03-10T10:11:50.607Z,2.00
2023-03-10T10:14:29.473Z,2.43
2023-03-10T10:17:00.931Z,2.43
2023-03-10T10:19:29.043Z,2.37
2023-03-10T10:21:56.242Z,1.93
2023-03-10T10:24:23.491Z,1.63
2023-03-10T10:26:51.159Z,2.43
2023-03-10T10:29:20.897Z,2.70
2023-03-10T10:32:08.392Z,2.10
2023-03-10T10:34:36.347Z,1.90
2023-03-10T10:37:03.578Z,1.80
2023-03-10T10:39:37.739Z,1.87
2023-03-10T10:42:14.092Z,1.70
2023-03-10T10:44:42.753Z,1.58
2023-03-10T10:47:21.406Z,1.55
2023-03-10T10:49:48.645Z,1.50
2023-03-10T10:52:20.443Z,1.73
2023-03-10T10:54:54.167Z,1.37
2023-03-10T10:57:22.930Z,2.17
2023-03-10T10:59:50.288Z,1.97
2023-03-10T11:02:32.412Z,1.70
2023-03-10T11:05:19.737Z,1.50
2023-03-10T11:07:46.996Z,1.70
2023-03-10T11:10:19.514Z,1.67
2023-03-10T11:13:05.729Z,1.60
2023-03-10T11:15:38.208Z,2.63
2023-03-10T11:18:05.471Z,2.20
2023-03-10T11:20:41.517Z,1.97
2023-03-10T11:23:30.043Z,1.90
2023-03-10T11:26:15.306Z,1.47
2023-03-10T11:28:49.007Z,1.70
2023-03-10T11:31:25.221Z,1.43
2023-03-10T11:34:11.268Z,1.50
2023-03-10T11:37:00.847Z,1.50
2023-03-10T11:39:27.999Z,1.20
2023-03-10T11:42:15.411Z,1.20
2023-03-10T11:44:48.036Z,1.93
2023-03-10T11:47:34.485Z,2.10
2023-03-10T11:50:07.012Z,1.60
2023-03-10T11:52:34.771Z,1.80
2023-03-10T11:55:05.757Z,1.20
2023-03-10T11:57:37.682Z,1.03
2023-03-10T12:00:07.847Z,1.30
2023-03-10T12:02:43.275Z,1.07
2023-03-10T12:05:16.526Z,1.20
2023-03-10T12:07:45.114Z,1.43
2023-03-10T12:10:12.312Z,1.67
2023-03-10T12:12:40.955Z,1.40
2023-03-10T12:15:16.981Z,1.03
2023-03-10T12:17:45.678Z,2.40
2023-03-10T12:20:19.049Z,1.00
2023-03-10T12:22:50.523Z,1.57
2023-03-10T12:25:40.845Z,1.23
2023-03-10T12:28:22.393Z,0.80
2023-03-10T12:30:51.407Z,1.10
2023-03-10T12:33:34.140Z,1.27
2023-03-10T12:36:05.993Z,0.80
2023-03-10T12:38:36.337Z,1.17
2023-03-10T12:41:03.818Z,0.90
2023-03-10T12:43:49.497Z,1.17
2023-03-10T12:46:20.125Z,1.10
2023-03-10T12:48:49.289Z,1.33
2023-03-10T12:51:20.417Z,1.07
2023-03-10T12:53:58.931Z,0.90
2023-03-10T12:56:34.125Z,1.03
2023-03-10T12:59:19.750Z,1.10
2023-03-10T13:01:55.636Z,1.47
2023-03-10T13:04:24.347Z,1.30
2023-03-10T13:06:56.710Z,1.40
2023-03-10T13:09:24.044Z,1.30
2023-03-10T13:11:53.183Z,1.17
2023-03-10T13:14:21.982Z,1.10
2023-03-10T13:17:00.707Z,1.47
2023-03-10T13:19:29.327Z,1.10
2023-03-10T13:21:57.809Z,1.10
2023-03-10T13:24:41.564Z,1.30
2023-03-10T13:27:14.345Z,1.10
2023-03-10T13:29:42.270Z,1.30
2023-03-10T13:32:18.544Z,1.43
2023-03-10T13:34:45.836Z,1.50
2023-03-10T13:37:13.130Z,1.40
2023-03-10T13:39:40.376Z,1.50
2023-03-10T13:42:40.709Z,1.60
2023-03-10T13:45:34.298Z,1.40
2023-03-10T13:48:04.493Z,1.17
2023-03-10T13:50:31.807Z,1.67
2023-03-10T13:53:00.215Z,1.80
2023-03-10T13:55:28.323Z,1.80
2023-03-10T13:57:56.651Z,2.30
2023-03-10T14:00:25.009Z,1.90
2023-03-10T14:02:53.262Z,2.47
2023-03-10T14:05:40.709Z,2.33
2023-03-10T14:08:17.886Z,1.97
2023-03-10T14:10:45.163Z,2.10
2023-03-10T14:13:30.879Z,2.00
2023-03-10T14:15:58.045Z,2.30
2023-03-10T14:18:27.986Z,3.47
2023-03-10T14:20:56.545Z,4.50
2023-03-10T14:23:26.466Z,4.57
2023-03-10T14:25:57.871Z,3.37
2023-03-10T14:28:28.975Z,1.50
2023-03-10T14:30:56.477Z,1.30
2023-03-10T14:33:23.942Z,0.90
2023-03-10T14:35:51.240Z,1.20
2023-03-10T14:38:18.702Z,0.73
2023-03-10T14:40:50.282Z,1.10
2023-03-10T14:43:19.180Z,1.00
2023-03-10T14:45:47.133Z,1.30
2023-03-10T14:48:17.659Z,1.27
2023-03-10T14:50:45.716Z,1.30
2023-03-10T14:53:14.335Z,1.20
2023-03-10T14:55:42.604Z,1.20
2023-03-10T14:58:13.481Z,1.80
2023-03-10T15:00:40.661Z,2.43
2023-03-10T15:03:07.847Z,1.87
2023-03-10T15:05:47.813Z,1.47
2023-03-10T15:08:15.794Z,1.70
2023-03-10T15:10:46.614Z,1.77
2023-03-10T15:13:13.836Z,2.27
2023-03-10T15:15:42.583Z,2.90
2023-03-10T15:18:17.280Z,2.80
2023-03-10T15:20:45.271Z,1.87
2023-03-10T15:23:16.533Z,2.70
2023-03-10T15:25:46.241Z,2.70
2023-03-10T15:28:13.817Z,2.40
2023-03-10T15:30:41.148Z,1.87
2023-03-10T15:33:08.342Z,2.20
2023-03-10T15:35:35.486Z,2.50
2023-03-10T15:38:02.989Z,2.80
2023-03-10T15:40:31.669Z,2.80
2023-03-10T15:42:59.897Z,3.07
2023-03-10T15:45:27.971Z,2.23
2023-03-10T15:47:55.221Z,3.43
2023-03-10T15:50:23.038Z,1.90
2023-03-10T15:52:51.391Z,2.43
2023-03-10T15:55:18.813Z,2.10
2023-03-10T15:57:50.244Z,2.43
2023-03-10T16:00:21.507Z,2.27
2023-03-10T16:02:49.267Z,1.50
2023-03-10T16:05:17.151Z,1.40
2023-03-10T16:07:44.454Z,1.33
2023-03-10T16:10:13.277Z,1.37
2023-03-10T16:12:40.497Z,1.50
2023-03-10T16:15:07.903Z,1.00
2023-03-10T16:17:35.761Z,1.63
2023-03-10T16:20:09.115Z,3.23
2023-03-10T16:22:40.460Z,1.73
2023-03-10T16:25:15.364Z,1.47
2023-03-10T16:27:43.266Z,1.70
2023-03-10T16:30:10.843Z,1.80
2023-03-10T16:32:38.181Z,2.77
2023-03-10T16:35:05.662Z,2.27
2023-03-10T16:37:32.871Z,1.80
2023-03-10T16:40:00.166Z,2.67
2023-03-10T16:42:27.350Z,3.07
2023-03-10T16:44:57.725Z,2.30
2023-03-10T16:47:25.003Z,2.33
2023-03-10T16:49:52.186Z,2.83
2023-03-10T16:52:19.485Z,2.40
2023-03-10T16:54:47.371Z,4.17
2023-03-10T16:57:15.008Z,3.10
2023-03-10T16:59:43.083Z,3.67
2023-03-10T17:02:15.166Z,2.40
2023-03-10T17:04:42.627Z,4.13
2023-03-10T17:07:09.918Z,4.40
2023-03-10T17:09:38.033Z,4.50
2023-03-10T17:12:05.448Z,5.20
2023-03-10T17:14:32.635Z,4.70
2023-03-10T17:17:02.593Z,4.30
2023-03-10T17:19:30.257Z,3.80
2023-03-10T17:21:58.232Z,2.73
2023-03-10T17:24:25.499Z,3.93
2023-03-10T17:26:52.706Z,3.87
2023-03-10T17:29:20.378Z,3.20
2023-03-10T17:31:50.403Z,3.10
2023-03-10T17:34:18.531Z,3.33
2023-03-10T17:36:46.710Z,2.47
2023-03-10T17:39:19.154Z,2.70
2023-03-10T17:41:46.624Z,1.80
2023-03-10T17:44:13.925Z,2.63
2023-03-10T17:46:41.394Z,1.87
2023-03-10T17:49:10.381Z,2.97
2023-03-10T17:51:39.204Z,2.60
2023-03-10T17:54:07.723Z,3.60
2023-03-10T17:56:35.108Z,2.77
2023-03-10T17:59:02.326Z,4.17
2023-03-10T18:01:30.741Z,3.27
2023-03-10T18:03:58.994Z,3.80
2023-03-10T18:06:28.073Z,4.43
2023-03-10T18:08:56.527Z,4.03
2023-03-10T18:11:24.488Z,3.60
2023-03-10T18:13:51.833Z,3.77
2023-03-10T18:16:23.787Z,3.30
2023-03-10T18:18:51.005Z,3.20
2023-03-10T18:21:18.816Z,3.10
2023-03-10T18:23:46.556Z,3.30
2023-03-10T18:26:15.013Z,2.80
2023-03-10T18:28:42.434Z,3.80
2023-03-10T18:31:10.985Z,2.87
2023-03-10T18:33:38.328Z,3.30
2023-03-10T18:36:06.689Z,3.27
2023-03-10T18:38:34.030Z,2.50
2023-03-10T18:41:02.530Z,2.87
2023-03-10T18:43:30.117Z,2.03
2023-03-10T18:45:57.378Z,2.80
2023-03-10T18:48:27.006Z,2.97
2023-03-10T18:50:54.288Z,2.63
2023-03-10T18:53:21.514Z,2.80
2023-03-10T18:55:48.719Z,3.40
2023-03-10T18:58:15.937Z,2.37
2023-03-10T19:00:43.118Z,2.57
2023-03-10T19:03:13.115Z,3.10
2023-03-10T19:05:41.179Z,2.70
2023-03-10T19:08:10.245Z,2.23
2023-03-10T19:10:37.943Z,3.47
2023-03-10T19:13:05.111Z,2.93
2023-03-10T19:15:32.316Z,2.53
2023-03-10T19:17:59.461Z,2.87
2023-03-10T19:20:26.664Z,2.90
2023-03-10T19:22:53.905Z,2.30
2023-03-10T19:25:21.251Z,1.90
2023-03-10T19:27:49.007Z,2.10
2023-03-10T19:30:18.038Z,2.13
2023-03-10T19:32:45.806Z,1.73
2023-03-10T19:35:13.539Z,2.30
2023-03-10T19:37:44.587Z,1.43
2023-03-10T19:40:14.526Z,2.23
2023-03-10T19:42:42.981Z,1.90
2023-03-10T19:45:14.045Z,2.23
2023-03-10T19:47:41.700Z,1.47
2023-03-10T19:50:09.972Z,1.97
2023-03-10T19:52:38.941Z,2.30
2023-03-10T19:55:09.569Z,1.80
2023-03-10T19:57:37.488Z,2.10
2023-03-10T20:00:09.422Z,2.77
2023-03-10T20:02:36.589Z,2.67
2023-03-10T20:05:03.888Z,2.90
2023-03-10T20:07:31.050Z,2.77
2023-03-10T20:09:58.210Z,3.27
2023-03-10T20:12:25.654Z,3.37
2023-03-10T20:14:58.509Z,2.93
2023-03-10T20:17:25.652Z,2.87
2023-03-10T20:19:52.835Z,3.07
2023-03-10T20:22:20.055Z,3.20
2023-03-10T20:24:47.269Z,2.83
2023-03-10T20:27:14.580Z,3.03
2023-03-10T20:29:42.475Z,3.63
2023-03-10T20:32:09.764Z,3.50
2023-03-10T20:34:37.278Z,2.90
2023-03-10T20:37:04.749Z,2.37
2023-03-10T20:39:31.951Z,3.00
2023-03-10T20:41:59.121Z,3.30
2023-03-10T20:44:26.319Z,3.37
2023-03-10T20:46:53.531Z,2.83
2023-03-10T20:49:20.675Z,2.93
2023-03-10T20:51:47.877Z,3.17
2023-03-10T20:54:15.071Z,3.00
2023-03-10T20:56:42.242Z,3.37
2023-03-10T20:59:09.663Z,2.70
2023-03-10T21:01:39.811Z,3.30
2023-03-10T21:04:07.174Z,3.23
2023-03-10T21:06:35.864Z,3.37
2023-03-10T21:09:05.902Z,2.97
2023-03-10T21:11:35.991Z,3.80
2023-03-10T21:14:03.476Z,3.57
2023-03-10T21:16:30.701Z,4.60
2023-03-10T21:18:57.978Z,5.23
2023-03-10T21:21:25.114Z,4.53
2023-03-10T21:23:52.272Z,3.17
2023-03-10T21:26:20.884Z,4.70
2023-03-10T21:28:48.162Z,5.37
2023-03-10T21:31:15.879Z,5.10
2023-03-10T21:33:43.283Z,4.87
2023-03-10T21:36:17.737Z,4.73
2023-03-10T21:38:48.663Z,4.57
2023-03-10T21:41:16.773Z,4.33
2023-03-10T21:43:43.893Z,3.93
2023-03-10T21:46:11.308Z,3.13
2023-03-10T21:48:38.708Z,5.13
2023-03-10T21:51:09.666Z,3.90
2023-03-10T21:53:36.924Z,4.43
2023-03-10T21:56:04.156Z,5.23
2023-03-10T21:58:31.516Z,4.80
2023-03-10T22:00:58.749Z,5.00
2023-03-10T22:03:25.892Z,4.70
2023-03-10T22:05:53.118Z,3.63
2023-03-10T22:08:21.865Z,3.47
2023-03-10T22:10:49.232Z,3.90
2023-03-10T22:13:16.442Z,4.00
2023-03-10T22:15:43.832Z,3.90
2023-03-10T22:18:11.066Z,3.10
2023-03-10T22:20:38.359Z,3.50
2023-03-10T22:23:05.553Z,3.60
2023-03-10T22:25:34.700Z,3.03
2023-03-10T22:28:02.195Z,3.47
2023-03-10T22:30:29.537Z,3.40
2023-03-10T22:32:56.719Z,2.90
2023-03-10T22:35:23.913Z,3.27
2023-03-10T22:37:54.777Z,2.63
2023-03-10T22:40:25.067Z,3.37
2023-03-10T22:42:52.548Z,2.07
2023-03-10T22:45:19.674Z,2.30
2023-03-10T22:47:47.399Z,2.10
2023-03-10T22:50:16.224Z,2.30
2023-03-10T22:52:43.447Z,1.13
2023-03-10T22:55:17.903Z,2.77
2023-03-10T22:57:45.529Z,2.73
2023-03-10T23:00:14.696Z,2.50
2023-03-10T23:02:42.286Z,2.53
2023-03-10T23:05:09.946Z,1.93
2023-03-10T23:07:37.122Z,2.07
2023-03-10T23:10:06.347Z,1.70
2023-03-10T23:12:33.971Z,2.10
2023-03-10T23:15:01.484Z,1.87
2023-03-10T23:17:29.513Z,1.77
2023-03-10T23:19:57.460Z,2.30
2023-03-10T23:22:24.656Z,1.53
2023-03-10T23:24:51.879Z,1.50
2023-03-10T23:27:19.546Z,1.20
2023-03-10T23:29:46.733Z,1.60
2023-03-10T23:32:13.998Z,2.53
2023-03-10T23:34:41.177Z,1.70
2023-03-10T23:37:08.545Z,2.13
2023-03-10T23:39:35.833Z,2.30
2023-03-10T23:42:03.118Z,1.70
2023-03-10T23:44:30.249Z,1.93
2023-03-10T23:46:57.432Z,1.70
2023-03-10T23:49:24.604Z,1.80
2023-03-10T23:51:54.412Z,2.43
2023-03-10T23:54:22.475Z,1.80
2023-03-10T23:56:51.070Z,2.40
2023-03-10T23:59:18.271Z,2.07
